createdAt,value
2023-03-04T00:10:45.724Z,4.40
2023-03-04T00:25:27.690Z,4.40
2023-03-04T00:27:54.319Z,4.50
2023-03-04T00:32:48.200Z,4.60
2023-03-04T00:40:11.052Z,4.70
2023-03-04T00:45:05.830Z,4.70
2023-03-04T00:47:32.436Z,4.70
2023-03-04T01:02:14.567Z,4.70
2023-03-04T01:04:41.840Z,4.70
2023-03-04T01:07:08.710Z,4.70
2023-03-04T01:29:12.232Z,4.90
2023-03-04T01:41:28.148Z,4.90
2023-03-04T01:43:57.328Z,5.00
2023-03-04T01:51:20.856Z,5.00
2023-03-04T01:53:54.785Z,4.90
2023-03-04T01:56:40.142Z,4.90
2023-03-04T01:59:09.974Z,4.90
2023-03-04T02:01:38.270Z,4.90
2023-03-04T02:06:33.952Z,6.90
2023-03-04T02:11:27.767Z,4.90
2023-03-04T02:21:30.506Z,5.00
2023-03-04T02:24:10.300Z,5.00
2023-03-04T02:26:37.225Z,5.10
2023-03-04T02:29:04.685Z,5.10
2023-03-04T02:31:33.468Z,4.90
2023-03-04T02:34:06.740Z,5.10
2023-03-04T02:36:34.864Z,5.10
2023-03-04T02:39:10.602Z,5.10
2023-03-04T02:44:27.661Z,5.10
2023-03-04T02:46:55.148Z,5.20
2023-03-04T02:49:23.800Z,5.20
2023-03-04T02:51:53.230Z,5.20
2023-03-04T02:54:24.505Z,5.10
2023-03-04T02:56:53.547Z,5.20
2023-03-04T02:59:23.578Z,5.20
2023-03-04T03:01:51.666Z,5.20
2023-03-04T03:04:19.706Z,5.20
2023-03-04T03:06:46.595Z,5.20
2023-03-04T04:03:15.898Z,5.40
2023-03-04T04:08:17.749Z,5.40
2023-03-04T04:10:44.623Z,5.40
2023-03-04T04:13:11.847Z,5.20
2023-03-04T04:18:09.431Z,5.40
2023-03-04T04:32:52.137Z,5.50
2023-03-04T04:37:45.897Z,5.40
2023-03-04T04:40:13.136Z,5.40
2023-03-04T04:47:34.278Z,5.40
2023-03-04T05:07:10.329Z,5.50
2023-03-04T05:21:52.200Z,5.50
2023-03-04T05:36:34.099Z,5.60
2023-03-04T05:41:27.807Z,5.60
2023-03-04T05:48:54.046Z,5.60
2023-03-04T05:56:18.826Z,5.50
2023-03-04T05:58:47.422Z,5.60
2023-03-04T06:08:37.256Z,5.60
2023-03-04T06:11:05.424Z,5.60
2023-03-04T06:16:00.195Z,5.50
2023-03-04T06:18:28.989Z,5.50
2023-03-04T06:21:00.332Z,5.50
2023-03-04T06:23:27.777Z,5.50
2023-03-04T06:25:55.827Z,5.50
2023-03-04T06:28:23.050Z,5.40
2023-03-04T06:30:53.012Z,5.40
2023-03-04T06:33:19.859Z,5.40
2023-03-04T06:52:58.775Z,5.40
2023-03-04T07:10:09.985Z,5.50
2023-03-04T07:12:36.840Z,5.50
2023-03-04T07:19:57.567Z,5.70
2023-03-04T07:39:33.628Z,5.70
2023-03-04T07:42:00.253Z,5.60
2023-03-04T07:51:48.207Z,5.70
2023-03-04T07:54:14.782Z,5.70
2023-03-04T08:01:37.890Z,5.90
2023-03-04T08:04:07.273Z,6.00
2023-03-04T08:09:06.455Z,6.00
2023-03-04T08:11:35.147Z,6.00
2023-03-04T08:14:02.056Z,6.00
2023-03-04T08:18:58.343Z,6.00
2023-03-04T08:21:26.367Z,6.50
2023-03-04T08:26:28.108Z,5.90
2023-03-04T08:28:55.234Z,5.90
2023-03-04T08:38:43.699Z,5.90
2023-03-04T08:41:10.291Z,5.80
2023-03-04T08:46:04.753Z,5.90
2023-03-04T08:53:25.992Z,6.00
2023-03-04T08:58:20.439Z,6.00
2023-03-04T09:00:48.807Z,6.00
2023-03-04T09:05:45.232Z,6.10
2023-03-04T09:08:12.151Z,6.00
2023-03-04T09:10:38.801Z,6.00
2023-03-04T09:15:35.951Z,5.90
2023-03-04T09:18:04.063Z,6.00
2023-03-04T09:20:31.846Z,6.00
2023-03-04T09:32:46.799Z,6.00
2023-03-04T09:35:13.553Z,6.10
2023-03-04T09:40:16.022Z,6.10
2023-03-04T09:42:47.589Z,6.00
2023-03-04T09:45:19.579Z,6.00
2023-03-04T09:47:47.436Z,6.00
2023-03-04T09:52:54.405Z,6.00
2023-03-04T09:58:11.457Z,6.00
2023-03-04T10:01:05.107Z,6.00
2023-03-04T10:03:48.715Z,6.00
2023-03-04T10:06:20.887Z,6.00
2023-03-04T10:08:57.854Z,6.00
2023-03-04T10:11:45.056Z,6.10
2023-03-04T10:14:23.599Z,6.10
2023-03-04T10:16:56.391Z,6.10
2023-03-04T10:19:39.691Z,6.10
2023-03-04T10:22:27.332Z,6.20
2023-03-04T10:24:56.891Z,6.20
2023-03-04T10:29:51.548Z,6.30
2023-03-04T10:32:20.773Z,6.20
2023-03-04T10:39:44.881Z,6.10
2023-03-04T10:42:14.590Z,6.10
2023-03-04T10:44:56.312Z,6.20
2023-03-04T10:47:25.283Z,6.30
2023-03-04T10:49:55.175Z,6.40
2023-03-04T10:52:38.263Z,6.40
2023-03-04T10:55:27.276Z,6.30
2023-03-04T10:58:05.197Z,6.40
2023-03-04T11:00:37.128Z,6.40
2023-03-04T11:03:29.944Z,6.40
2023-03-04T11:06:16.640Z,6.40
2023-03-04T11:11:44.369Z,6.40
2023-03-04T11:14:39.582Z,6.30
2023-03-04T11:17:19.376Z,6.30
2023-03-04T11:19:53.085Z,6.30
2023-03-04T11:22:23.096Z,6.30
2023-03-04T11:24:58.969Z,6.30
2023-03-04T11:27:44.354Z,6.30
2023-03-04T11:30:13.897Z,6.40
2023-03-04T11:32:45.756Z,6.40
2023-03-04T11:35:42.868Z,6.40
2023-03-04T11:38:18.476Z,6.50
2023-03-04T11:41:04.500Z,6.50
2023-03-04T11:43:43.374Z,6.50
2023-03-04T11:46:32.021Z,6.50
2023-03-04T11:51:34.953Z,6.50
2023-03-04T11:54:32.228Z,6.60
2023-03-04T11:57:23.591Z,6.70
2023-03-04T12:00:13.217Z,6.80
2023-03-04T12:03:14.243Z,6.90
2023-03-04T12:05:52.766Z,6.90
2023-03-04T12:08:25.514Z,6.90
2023-03-04T12:10:59.037Z,6.90
2023-03-04T12:13:54.527Z,6.90
2023-03-04T12:16:48.497Z,6.90
2023-03-04T12:19:24.196Z,6.90
2023-03-04T12:22:02.650Z,7.00
2023-03-04T12:24:34.640Z,7.00
2023-03-04T12:27:41.987Z,6.90
2023-03-04T12:30:48.867Z,6.90
2023-03-04T12:33:32.500Z,6.90
2023-03-04T12:36:18.307Z,7.00
2023-03-04T12:39:00.822Z,7.00
2023-03-04T12:41:43.046Z,7.10
2023-03-04T12:44:12.614Z,7.20
2023-03-04T12:47:14.438Z,7.20
2023-03-04T12:50:06.844Z,7.20
2023-03-04T12:52:44.683Z,7.20
2023-03-04T12:55:15.939Z,7.20
2023-03-04T12:57:43.156Z,7.30
2023-03-04T13:00:29.735Z,7.30
2023-03-04T13:03:18.209Z,7.30
2023-03-04T13:05:47.880Z,7.30
2023-03-04T13:08:33.121Z,7.40
2023-03-04T13:11:25.790Z,7.30
2023-03-04T13:14:03.076Z,7.30
2023-03-04T13:16:45.500Z,7.30
2023-03-04T13:19:52.545Z,7.40
2023-03-04T13:22:39.121Z,7.40
2023-03-04T13:25:46.525Z,7.40
2023-03-04T13:28:21.901Z,7.50
2023-03-04T13:30:55.743Z,7.60
2023-03-04T13:35:54.362Z,7.70
2023-03-04T13:38:27.285Z,7.70
2023-03-04T13:41:13.912Z,7.70
2023-03-04T13:43:41.812Z,7.70
2023-03-04T13:46:20.874Z,7.70
2023-03-04T13:48:50.636Z,7.80
2023-03-04T13:51:34.175Z,7.90
2023-03-04T13:54:00.913Z,7.90
2023-03-04T13:56:41.618Z,7.90
2023-03-04T14:01:36.734Z,7.90
2023-03-04T14:04:15.563Z,7.80
2023-03-04T14:06:44.110Z,7.80
2023-03-04T14:09:21.952Z,7.70
2023-03-04T14:11:50.357Z,7.80
2023-03-04T14:14:23.984Z,7.80
2023-03-04T14:16:57.759Z,7.80
2023-03-04T14:19:31.154Z,7.80
2023-03-04T14:21:59.226Z,7.90
2023-03-04T14:24:26.491Z,7.90
2023-03-04T14:27:13.372Z,7.80
2023-03-04T14:32:07.624Z,7.70
2023-03-04T14:34:37.696Z,7.60
2023-03-04T14:37:19.475Z,7.50
2023-03-04T14:39:50.599Z,7.50
2023-03-04T14:42:20.164Z,7.40
2023-03-04T14:44:49.723Z,7.40
2023-03-04T14:47:36.169Z,7.40
2023-03-04T14:50:11.195Z,7.40
2023-03-04T14:52:39.304Z,7.40
2023-03-04T14:55:14.999Z,7.40
2023-03-04T14:57:44.166Z,7.40
2023-03-04T15:00:26.160Z,7.40
2023-03-04T15:02:57.295Z,7.40
2023-03-04T15:05:28.201Z,7.40
2023-03-04T15:07:59.612Z,7.40
2023-03-04T15:10:34.073Z,7.40
2023-03-04T15:13:03.496Z,7.40
2023-03-04T15:15:46.391Z,7.40
2023-03-04T15:18:23.893Z,7.40
2023-03-04T15:20:56.123Z,7.40
2023-03-04T15:25:56.048Z,7.30
2023-03-04T15:28:23.977Z,7.40
2023-03-04T15:30:51.116Z,7.30
2023-03-04T15:33:20.768Z,7.30
2023-03-04T15:35:53.662Z,7.30
2023-03-04T15:38:20.982Z,7.30
2023-03-04T15:40:48.298Z,7.40
2023-03-04T15:43:20.260Z,7.30
2023-03-04T15:45:48.278Z,7.30
2023-03-04T15:48:17.140Z,7.30
2023-03-04T15:50:45.533Z,7.20
2023-03-04T15:53:28.546Z,7.20
2023-03-04T15:55:55.446Z,7.20
2023-03-04T15:58:22.458Z,7.10
2023-03-04T16:00:49.142Z,7.10
2023-03-04T16:03:17.591Z,7.10
2023-03-04T16:05:46.409Z,7.10
2023-03-04T16:08:14.633Z,7.20
2023-03-04T16:10:43.683Z,7.20
2023-03-04T16:13:17.776Z,7.10
2023-03-04T16:15:45.510Z,7.20
2023-03-04T16:18:13.645Z,7.10
2023-03-04T16:20:43.587Z,7.10
2023-03-04T16:23:14.527Z,7.10
2023-03-04T16:25:44.351Z,7.10
2023-03-04T16:28:12.112Z,7.10
2023-03-04T16:30:38.917Z,7.10
2023-03-04T16:33:05.549Z,7.10
2023-03-04T16:38:01.320Z,7.10
2023-03-04T16:40:30.150Z,7.10
2023-03-04T16:42:57.213Z,7.10
2023-03-04T16:45:26.493Z,7.00
2023-03-04T16:47:53.756Z,7.00
2023-03-04T16:50:27.369Z,7.00
2023-03-04T16:52:55.388Z,6.90
2023-03-04T16:55:25.442Z,6.90
2023-03-04T16:57:53.070Z,6.90
2023-03-04T17:00:21.319Z,6.80
2023-03-04T17:02:55.599Z,6.80
2023-03-04T17:05:23.814Z,6.80
2023-03-04T17:10:17.799Z,6.70
2023-03-04T17:12:44.668Z,6.60
2023-03-04T17:15:13.492Z,6.60
2023-03-04T17:17:41.209Z,6.70
2023-03-04T17:20:10.029Z,6.70
2023-03-04T17:27:31.572Z,6.70
2023-03-04T17:34:58.851Z,6.60
2023-03-04T17:39:53.245Z,6.50
2023-03-04T17:44:47.038Z,6.40
2023-03-04T17:49:40.843Z,6.20
2023-03-04T17:52:07.420Z,6.30
2023-03-04T17:57:03.250Z,6.20
2023-03-04T18:04:24.291Z,6.00
2023-03-04T18:06:51.014Z,6.00
2023-03-04T18:09:17.627Z,6.10
2023-03-04T18:11:44.352Z,6.00
2023-03-04T18:24:03.624Z,5.80
2023-03-04T18:31:30.196Z,5.80
2023-03-04T18:34:03.031Z,5.90
2023-03-04T18:41:27.768Z,5.80
2023-03-04T18:43:55.114Z,5.80
2023-03-04T18:46:47.542Z,5.80
2023-03-04T18:49:14.992Z,5.80
2023-03-04T18:51:42.033Z,5.80
2023-03-04T18:56:38.394Z,5.80
2023-03-04T18:59:21.005Z,5.90
2023-03-04T19:01:50.524Z,5.90
2023-03-04T19:04:20.071Z,5.90
2023-03-04T19:14:08.118Z,5.80
2023-03-04T19:16:35.812Z,5.80
2023-03-04T19:19:03.251Z,5.80
2023-03-04T19:21:29.936Z,5.70
2023-03-04T19:26:23.986Z,5.70
2023-03-04T19:31:17.879Z,5.60
2023-03-04T19:33:44.534Z,5.60
2023-03-04T19:36:11.215Z,5.50
2023-03-04T19:41:15.803Z,5.50
2023-03-04T19:43:42.895Z,5.50
2023-03-04T19:46:11.532Z,5.50
2023-03-04T19:48:39.616Z,5.50
2023-03-04T19:51:18.732Z,5.60
2023-03-04T19:53:45.679Z,5.50
2023-03-04T19:56:12.928Z,5.60
2023-03-04T19:58:39.822Z,5.60
2023-03-04T20:03:34.108Z,5.70
2023-03-04T20:06:08.722Z,5.60
2023-03-04T20:08:38.357Z,5.60
2023-03-04T20:11:12.653Z,5.60
2023-03-04T20:13:39.558Z,5.60
2023-03-04T20:16:11.028Z,5.60
2023-03-04T20:18:39.018Z,5.50
2023-03-04T20:21:06.314Z,5.50
2023-03-04T20:23:33.936Z,5.50
2023-03-04T20:26:00.873Z,5.50
2023-03-04T20:28:28.184Z,5.50
2023-03-04T20:31:15.695Z,5.50
2023-03-04T20:33:43.474Z,5.60
2023-03-04T20:43:32.407Z,5.40
2023-03-04T20:46:24.631Z,5.50
2023-03-04T20:51:18.500Z,5.40
2023-03-04T20:53:45.158Z,5.40
2023-03-04T20:58:39.205Z,5.40
2023-03-04T21:01:06.012Z,5.40
2023-03-04T21:03:32.813Z,5.40
2023-03-04T21:06:04.316Z,5.30
2023-03-04T21:15:57.915Z,5.30
2023-03-04T21:18:25.808Z,5.40
2023-03-04T21:23:21.502Z,5.40
2023-03-04T21:25:48.714Z,5.40
2023-03-04T21:28:16.069Z,5.40
2023-03-04T21:30:42.963Z,5.40
2023-03-04T21:33:17.985Z,5.30
2023-03-04T21:35:45.918Z,5.30
2023-03-04T21:38:12.760Z,5.20
2023-03-04T21:43:07.018Z,5.10
2023-03-04T21:45:33.738Z,5.00
2023-03-04T21:48:00.351Z,5.00
2023-03-04T21:50:26.982Z,4.90
2023-03-04T22:00:15.954Z,5.00
2023-03-04T22:05:09.754Z,4.80
2023-03-04T22:10:06.538Z,4.80
2023-03-04T22:12:33.318Z,4.80
2023-03-04T22:15:00.150Z,4.80
2023-03-04T22:22:21.702Z,4.90
2023-03-04T22:41:58.125Z,4.90
2023-03-04T22:46:51.864Z,4.90
2023-03-04T22:54:15.651Z,4.80
2023-03-04T23:08:59.395Z,4.70
2023-03-04T23:11:31.792Z,4.70
2023-03-04T23:14:01.934Z,4.70
2023-03-04T23:21:28.362Z,4.80
2023-03-04T23:23:55.173Z,4.80
2023-03-04T23:26:24.769Z,4.80
2023-03-04T23:31:18.800Z,4.80
2023-03-04T23:33:47.739Z,4.80
2023-03-04T23:36:17.224Z,4.80
2023-03-04T23:38:45.668Z,4.80
2023-03-04T23:41:20.630Z,4.80
2023-03-04T23:43:48.828Z,4.80
2023-03-04T23:48:46.315Z,4.90
2023-03-04T23:51:18.388Z,4.90
2023-03-04T23:53:45.662Z,4.90
2023-03-04T23:56:16.113Z,4.80
